sensor_id;sensor_type;location;lat;lon;timestamp;P1;durP1;ratioP1;P2;durP2;ratioP2
15171;SDS011;7686;52.184;9.280;2022-12-18T00:02:11;1.10;;;0.90;;
15171;SDS011;7686;52.184;9.280;2022-12-18T00:04:37;1.00;;;0.90;;
15171;SDS011;7686;52.184;9.280;2022-12-18T00:07:04;0.90;;;0.73;;
15171;SDS011;7686;52.184;9.280;2022-12-18T00:09:31;2.15;;;0.90;;
15171;SDS011;7686;52.184;9.280;2022-12-18T00:12:05;1.13;;;0.90;;
15171;SDS011;7686;52.184;9.280;2022-12-18T00:14:41;1.42;;;0.80;;
15171;SDS011;7686;52.184;9.280;2022-12-18T00:17:08;2.13;;;0.75;;
15171;SDS011;7686;52.184;9.280;2022-12-18T00:19:35;1.90;;;0.80;;
15171;SDS011;7686;52.184;9.280;2022-12-18T00:22:01;1.30;;;0.90;;
15171;SDS011;7686;52.184;9.280;2022-12-18T00:24:28;1.58;;;1.10;;
15171;SDS011;7686;52.184;9.280;2022-12-18T00:26:55;1.20;;;1.00;;
15171;SDS011;7686;52.184;9.280;2022-12-18T00:29:21;1.60;;;1.00;;
15171;SDS011;7686;52.184;9.280;2022-12-18T00:31:48;1.83;;;1.15;;
15171;SDS011;7686;52.184;9.280;2022-12-18T00:34:15;1.33;;;0.97;;
15171;SDS011;7686;52.184;9.280;2022-12-18T00:36:42;2.88;;;1.10;;
15171;SDS011;7686;52.184;9.280;2022-12-18T00:39:09;3.95;;;1.13;;
15171;SDS011;7686;52.184;9.280;2022-12-18T00:41:36;2.30;;;1.10;;
15171;SDS011;7686;52.184;9.280;2022-12-18T00:44:22;2.22;;;1.00;;
15171;SDS011;7686;52.184;9.280;2022-12-18T00:46:48;1.98;;;1.25;;
15171;SDS011;7686;52.184;9.280;2022-12-18T00:49:16;2.00;;;1.30;;
15171;SDS011;7686;52.184;9.280;2022-12-18T00:51:44;2.05;;;1.10;;
15171;SDS011;7686;52.184;9.280;2022-12-18T00:54:11;2.63;;;1.40;;
15171;SDS011;7686;52.184;9.280;2022-12-18T00:56:38;3.58;;;1.50;;
15171;SDS011;7686;52.184;9.280;2022-12-18T00:59:14;2.50;;;1.30;;
15171;SDS011;7686;52.184;9.280;2022-12-18T01:01:41;1.20;;;1.02;;
15171;SDS011;7686;52.184;9.280;2022-12-18T01:04:08;1.50;;;1.20;;
15171;SDS011;7686;52.184;9.280;2022-12-18T01:06:35;1.40;;;1.13;;
15171;SDS011;7686;52.184;9.280;2022-12-18T01:09:02;1.95;;;1.10;;
15171;SDS011;7686;52.184;9.280;2022-12-18T01:11:29;1.55;;;1.10;;
15171;SDS011;7686;52.184;9.280;2022-12-18T01:13:56;2.53;;;1.10;;
15171;SDS011;7686;52.184;9.280;2022-12-18T01:16:22;2.50;;;1.23;;
15171;SDS011;7686;52.184;9.280;2022-12-18T01:18:52;2.03;;;1.10;;
15171;SDS011;7686;52.184;9.280;2022-12-18T01:21:20;1.38;;;1.02;;
15171;SDS011;7686;52.184;9.280;2022-12-18T01:23:50;1.48;;;0.85;;
15171;SDS011;7686;52.184;9.280;2022-12-18T01:26:18;1.75;;;1.02;;
15171;SDS011;7686;52.184;9.280;2022-12-18T01:28:45;1.42;;;1.05;;
15171;SDS011;7686;52.184;9.280;2022-12-18T01:33:40;2.10;;;1.10;;
15171;SDS011;7686;52.184;9.280;2022-12-18T01:36:07;2.13;;;1.17;;
15171;SDS011;7686;52.184;9.280;2022-12-18T01:38:34;1.55;;;1.08;;
15171;SDS011;7686;52.184;9.280;2022-12-18T01:41:01;1.77;;;1.20;;
15171;SDS011;7686;52.184;9.280;2022-12-18T01:46:53;1.15;;;0.90;;
15171;SDS011;7686;52.184;9.280;2022-12-18T01:49:20;1.23;;;0.93;;
15171;SDS011;7686;52.184;9.280;2022-12-18T01:51:47;2.05;;;1.00;;
15171;SDS011;7686;52.184;9.280;2022-12-18T01:54:13;0.88;;;0.88;;
15171;SDS011;7686;52.184;9.280;2022-12-18T01:56:40;1.08;;;0.90;;
15171;SDS011;7686;52.184;9.280;2022-12-18T01:59:07;1.20;;;1.08;;
15171;SDS011;7686;52.184;9.280;2022-12-18T02:01:36;1.00;;;0.90;;
15171;SDS011;7686;52.184;9.280;2022-12-18T02:04:23;1.92;;;1.10;;
15171;SDS011;7686;52.184;9.280;2022-12-18T02:06:59;1.38;;;0.90;;
15171;SDS011;7686;52.184;9.280;2022-12-18T02:09:38;2.27;;;1.07;;
15171;SDS011;7686;52.184;9.280;2022-12-18T02:12:16;1.52;;;1.05;;
15171;SDS011;7686;52.184;9.280;2022-12-18T02:14:55;1.48;;;0.90;;
15171;SDS011;7686;52.184;9.280;2022-12-18T02:17:30;1.20;;;0.90;;
15171;SDS011;7686;52.184;9.280;2022-12-18T02:26:16;1.25;;;0.70;;
15171;SDS011;7686;52.184;9.280;2022-12-18T02:28:55;1.38;;;1.00;;
15171;SDS011;7686;52.184;9.280;2022-12-18T02:31:29;1.40;;;0.90;;
15171;SDS011;7686;52.184;9.280;2022-12-18T02:34:00;1.30;;;0.85;;
15171;SDS011;7686;52.184;9.280;2022-12-18T02:36:29;1.40;;;1.00;;
15171;SDS011;7686;52.184;9.280;2022-12-18T02:38:58;1.10;;;0.90;;
15171;SDS011;7686;52.184;9.280;2022-12-18T02:41:27;0.82;;;0.77;;
15171;SDS011;7686;52.184;9.280;2022-12-18T02:43:56;2.10;;;1.10;;
15171;SDS011;7686;52.184;9.280;2022-12-18T02:57:45;1.23;;;0.93;;
15171;SDS011;7686;52.184;9.280;2022-12-18T03:02:48;1.10;;;0.80;;
15171;SDS011;7686;52.184;9.280;2022-12-18T03:05:24;2.05;;;0.90;;
15171;SDS011;7686;52.184;9.280;2022-12-18T03:08:06;1.33;;;0.93;;
15171;SDS011;7686;52.184;9.280;2022-12-18T03:10:49;1.15;;;0.90;;
15171;SDS011;7686;52.184;9.280;2022-12-18T03:14:07;1.15;;;0.80;;
15171;SDS011;7686;52.184;9.280;2022-12-18T03:16:15;1.10;;;0.90;;
15171;SDS011;7686;52.184;9.280;2022-12-18T03:18:53;1.10;;;1.00;;
15171;SDS011;7686;52.184;9.280;2022-12-18T03:21:26;1.00;;;0.90;;
15171;SDS011;7686;52.184;9.280;2022-12-18T03:23:59;1.37;;;0.90;;
15171;SDS011;7686;52.184;9.280;2022-12-18T03:26:27;0.90;;;0.75;;
15171;SDS011;7686;52.184;9.280;2022-12-18T03:28:57;1.05;;;0.90;;
15171;SDS011;7686;52.184;9.280;2022-12-18T03:31:28;0.95;;;0.80;;
15171;SDS011;7686;52.184;9.280;2022-12-18T03:33:58;1.17;;;0.93;;
15171;SDS011;7686;52.184;9.280;2022-12-18T03:36:28;1.05;;;0.80;;
15171;SDS011;7686;52.184;9.280;2022-12-18T03:38:55;2.65;;;0.70;;
15171;SDS011;7686;52.184;9.280;2022-12-18T03:46:52;1.73;;;0.80;;
15171;SDS011;7686;52.184;9.280;2022-12-18T03:49:56;0.65;;;0.65;;
15171;SDS011;7686;52.184;9.280;2022-12-18T03:52:26;1.75;;;0.95;;
15171;SDS011;7686;52.184;9.280;2022-12-18T03:54:58;0.80;;;0.80;;
15171;SDS011;7686;52.184;9.280;2022-12-18T03:57:28;1.10;;;0.90;;
15171;SDS011;7686;52.184;9.280;2022-12-18T03:59:59;1.23;;;0.93;;
15171;SDS011;7686;52.184;9.280;2022-12-18T04:02:30;1.00;;;0.90;;
15171;SDS011;7686;52.184;9.280;2022-12-18T04:04:59;1.15;;;0.82;;
15171;SDS011;7686;52.184;9.280;2022-12-18T04:07:28;1.95;;;0.88;;
15171;SDS011;7686;52.184;9.280;2022-12-18T04:09:56;0.98;;;0.88;;
15171;SDS011;7686;52.184;9.280;2022-12-18T04:12:25;1.03;;;0.90;;
15171;SDS011;7686;52.184;9.280;2022-12-18T04:14:52;0.90;;;0.82;;
15171;SDS011;7686;52.184;9.280;2022-12-18T04:17:18;1.15;;;0.88;;
15171;SDS011;7686;52.184;9.280;2022-12-18T04:19:45;1.02;;;0.77;;
15171;SDS011;7686;52.184;9.280;2022-12-18T04:22:12;0.80;;;0.80;;
15171;SDS011;7686;52.184;9.280;2022-12-18T04:24:39;1.02;;;0.88;;
15171;SDS011;7686;52.184;9.280;2022-12-18T04:27:05;0.90;;;0.83;;
15171;SDS011;7686;52.184;9.280;2022-12-18T04:29:32;1.20;;;1.03;;
15171;SDS011;7686;52.184;9.280;2022-12-18T04:31:59;1.20;;;0.83;;
15171;SDS011;7686;52.184;9.280;2022-12-18T04:34:26;1.23;;;0.82;;
15171;SDS011;7686;52.184;9.280;2022-12-18T04:36:52;1.75;;;0.93;;
15171;SDS011;7686;52.184;9.280;2022-12-18T04:39:19;0.70;;;0.70;;
15171;SDS011;7686;52.184;9.280;2022-12-18T04:41:46;0.80;;;0.80;;
15171;SDS011;7686;52.184;9.280;2022-12-18T04:44:13;0.90;;;0.90;;
15171;SDS011;7686;52.184;9.280;2022-12-18T04:46:39;1.35;;;0.75;;
15171;SDS011;7686;52.184;9.280;2022-12-18T04:49:06;1.52;;;0.90;;
15171;SDS011;7686;52.184;9.280;2022-12-18T04:51:33;1.63;;;0.80;;
15171;SDS011;7686;52.184;9.280;2022-12-18T04:53:59;1.00;;;0.90;;
15171;SDS011;7686;52.184;9.280;2022-12-18T04:56:26;1.15;;;0.90;;
15171;SDS011;7686;52.184;9.280;2022-12-18T04:58:52;2.03;;;0.90;;
15171;SDS011;7686;52.184;9.280;2022-12-18T05:01:19;1.00;;;0.90;;
15171;SDS011;7686;52.184;9.280;2022-12-18T05:03:47;1.20;;;0.83;;
15171;SDS011;7686;52.184;9.280;2022-12-18T05:06:13;1.10;;;0.70;;
15171;SDS011;7686;52.184;9.280;2022-12-18T05:08:40;1.27;;;0.85;;
15171;SDS011;7686;52.184;9.280;2022-12-18T05:11:12;0.80;;;0.80;;
15171;SDS011;7686;52.184;9.280;2022-12-18T05:13:43;0.70;;;0.70;;
15171;SDS011;7686;52.184;9.280;2022-12-18T05:16:10;1.05;;;0.80;;
15171;SDS011;7686;52.184;9.280;2022-12-18T05:18:38;1.00;;;0.80;;
15171;SDS011;7686;52.184;9.280;2022-12-18T05:21:05;1.07;;;0.90;;
15171;SDS011;7686;52.184;9.280;2022-12-18T05:23:32;1.23;;;0.80;;
15171;SDS011;7686;52.184;9.280;2022-12-18T05:25:59;0.80;;;0.80;;
15171;SDS011;7686;52.184;9.280;2022-12-18T05:28:28;0.73;;;0.73;;
15171;SDS011;7686;52.184;9.280;2022-12-18T05:30:57;0.70;;;0.70;;
15171;SDS011;7686;52.184;9.280;2022-12-18T05:33:26;0.80;;;0.80;;
15171;SDS011;7686;52.184;9.280;2022-12-18T05:35:57;1.05;;;0.80;;
15171;SDS011;7686;52.184;9.280;2022-12-18T05:38:25;1.15;;;0.73;;
15171;SDS011;7686;52.184;9.280;2022-12-18T05:40:53;0.70;;;0.70;;
15171;SDS011;7686;52.184;9.280;2022-12-18T05:43:21;0.80;;;0.80;;
15171;SDS011;7686;52.184;9.280;2022-12-18T05:45:48;0.77;;;0.75;;
15171;SDS011;7686;52.184;9.280;2022-12-18T05:48:16;1.00;;;0.80;;
15171;SDS011;7686;52.184;9.280;2022-12-18T05:50:44;1.00;;;0.80;;
15171;SDS011;7686;52.184;9.280;2022-12-18T05:53:12;1.75;;;0.80;;
15171;SDS011;7686;52.184;9.280;2022-12-18T05:55:40;1.95;;;0.70;;
15171;SDS011;7686;52.184;9.280;2022-12-18T05:58:09;1.25;;;0.70;;
15171;SDS011;7686;52.184;9.280;2022-12-18T06:00:38;1.00;;;0.75;;
15171;SDS011;7686;52.184;9.280;2022-12-18T06:03:06;0.75;;;0.75;;
15171;SDS011;7686;52.184;9.280;2022-12-18T06:05:38;0.80;;;0.80;;
15171;SDS011;7686;52.184;9.280;2022-12-18T06:08:06;0.80;;;0.80;;
15171;SDS011;7686;52.184;9.280;2022-12-18T06:10:33;0.70;;;0.70;;
15171;SDS011;7686;52.184;9.280;2022-12-18T06:13:00;1.20;;;0.70;;
15171;SDS011;7686;52.184;9.280;2022-12-18T06:15:27;0.60;;;0.60;;
15171;SDS011;7686;52.184;9.280;2022-12-18T06:17:53;0.80;;;0.68;;
15171;SDS011;7686;52.184;9.280;2022-12-18T06:20:20;0.73;;;0.70;;
15171;SDS011;7686;52.184;9.280;2022-12-18T06:22:47;2.05;;;0.90;;
15171;SDS011;7686;52.184;9.280;2022-12-18T06:25:13;1.48;;;0.80;;
15171;SDS011;7686;52.184;9.280;2022-12-18T06:27:40;0.68;;;0.65;;
15171;SDS011;7686;52.184;9.280;2022-12-18T06:30:08;0.85;;;0.75;;
15171;SDS011;7686;52.184;9.280;2022-12-18T06:32:35;1.00;;;0.80;;
15171;SDS011;7686;52.184;9.280;2022-12-18T06:35:02;0.80;;;0.80;;
15171;SDS011;7686;52.184;9.280;2022-12-18T06:37:30;0.75;;;0.75;;
15171;SDS011;7686;52.184;9.280;2022-12-18T06:39:57;0.87;;;0.80;;
15171;SDS011;7686;52.184;9.280;2022-12-18T06:42:24;0.73;;;0.70;;
15171;SDS011;7686;52.184;9.280;2022-12-18T06:44:51;0.80;;;0.70;;
15171;SDS011;7686;52.184;9.280;2022-12-18T06:47:18;0.60;;;0.60;;
15171;SDS011;7686;52.184;9.280;2022-12-18T06:49:44;0.85;;;0.70;;
15171;SDS011;7686;52.184;9.280;2022-12-18T06:52:11;0.73;;;0.73;;
15171;SDS011;7686;52.184;9.280;2022-12-18T06:54:38;1.07;;;0.80;;
15171;SDS011;7686;52.184;9.280;2022-12-18T06:57:04;0.60;;;0.60;;
15171;SDS011;7686;52.184;9.280;2022-12-18T06:59:31;0.60;;;0.60;;
15171;SDS011;7686;52.184;9.280;2022-12-18T07:01:58;0.73;;;0.73;;
15171;SDS011;7686;52.184;9.280;2022-12-18T07:04:27;1.17;;;0.70;;
15171;SDS011;7686;52.184;9.280;2022-12-18T07:06:57;0.85;;;0.80;;
15171;SDS011;7686;52.184;9.280;2022-12-18T07:09:24;0.60;;;0.60;;
15171;SDS011;7686;52.184;9.280;2022-12-18T07:11:51;0.80;;;0.80;;
15171;SDS011;7686;52.184;9.280;2022-12-18T07:14:18;0.70;;;0.70;;
15171;SDS011;7686;52.184;9.280;2022-12-18T07:16:45;0.93;;;0.60;;
15171;SDS011;7686;52.184;9.280;2022-12-18T07:19:12;1.63;;;1.00;;
15171;SDS011;7686;52.184;9.280;2022-12-18T07:21:38;1.70;;;1.38;;
15171;SDS011;7686;52.184;9.280;2022-12-18T07:24:05;1.40;;;1.27;;
15171;SDS011;7686;52.184;9.280;2022-12-18T07:26:32;2.10;;;1.40;;
15171;SDS011;7686;52.184;9.280;2022-12-18T07:28:59;1.25;;;1.05;;
15171;SDS011;7686;52.184;9.280;2022-12-18T07:31:26;1.23;;;0.98;;
15171;SDS011;7686;52.184;9.280;2022-12-18T07:33:53;1.50;;;1.10;;
15171;SDS011;7686;52.184;9.280;2022-12-18T07:36:23;2.37;;;1.17;;
15171;SDS011;7686;52.184;9.280;2022-12-18T07:38:50;1.33;;;1.10;;
15171;SDS011;7686;52.184;9.280;2022-12-18T07:41:18;1.60;;;1.20;;
15171;SDS011;7686;52.184;9.280;2022-12-18T07:43:45;1.88;;;1.20;;
15171;SDS011;7686;52.184;9.280;2022-12-18T07:46:13;1.58;;;1.27;;
15171;SDS011;7686;52.184;9.280;2022-12-18T07:48:41;2.03;;;1.23;;
15171;SDS011;7686;52.184;9.280;2022-12-18T07:51:09;1.33;;;1.20;;
15171;SDS011;7686;52.184;9.280;2022-12-18T07:53:38;1.45;;;1.02;;
15171;SDS011;7686;52.184;9.280;2022-12-18T07:56:08;1.33;;;1.00;;
15171;SDS011;7686;52.184;9.280;2022-12-18T07:58:54;1.95;;;1.10;;
15171;SDS011;7686;52.184;9.280;2022-12-18T08:01:21;1.17;;;1.00;;
15171;SDS011;7686;52.184;9.280;2022-12-18T08:03:47;1.75;;;1.00;;
15171;SDS011;7686;52.184;9.280;2022-12-18T08:06:17;1.50;;;1.00;;
15171;SDS011;7686;52.184;9.280;2022-12-18T08:08:47;1.17;;;1.05;;
15171;SDS011;7686;52.184;9.280;2022-12-18T08:11:15;1.63;;;1.00;;
15171;SDS011;7686;52.184;9.280;2022-12-18T08:13:41;1.70;;;1.10;;
15171;SDS011;7686;52.184;9.280;2022-12-18T08:16:08;0.80;;;0.80;;
15171;SDS011;7686;52.184;9.280;2022-12-18T08:18:36;2.00;;;0.90;;
15171;SDS011;7686;52.184;9.280;2022-12-18T08:23:41;7.20;;;2.72;;
15171;SDS011;7686;52.184;9.280;2022-12-18T08:26:09;5.20;;;3.03;;
15171;SDS011;7686;52.184;9.280;2022-12-18T08:28:36;6.18;;;2.92;;
15171;SDS011;7686;52.184;9.280;2022-12-18T08:31:03;5.07;;;2.70;;
15171;SDS011;7686;52.184;9.280;2022-12-18T08:33:30;4.50;;;2.65;;
15171;SDS011;7686;52.184;9.280;2022-12-18T08:35:58;5.80;;;2.45;;
15171;SDS011;7686;52.184;9.280;2022-12-18T08:38:25;3.10;;;2.10;;
15171;SDS011;7686;52.184;9.280;2022-12-18T08:41:01;3.88;;;2.10;;
15171;SDS011;7686;52.184;9.280;2022-12-18T08:43:30;4.70;;;1.90;;
15171;SDS011;7686;52.184;9.280;2022-12-18T08:46:36;4.72;;;2.53;;
15171;SDS011;7686;52.184;9.280;2022-12-18T08:49:05;4.82;;;2.17;;
15171;SDS011;7686;52.184;9.280;2022-12-18T08:51:33;4.50;;;2.13;;
15171;SDS011;7686;52.184;9.280;2022-12-18T08:54:00;4.13;;;2.10;;
15171;SDS011;7686;52.184;9.280;2022-12-18T08:56:27;3.28;;;1.83;;
15171;SDS011;7686;52.184;9.280;2022-12-18T08:58:56;4.28;;;2.15;;
15171;SDS011;7686;52.184;9.280;2022-12-18T09:01:23;3.63;;;1.60;;
15171;SDS011;7686;52.184;9.280;2022-12-18T09:03:50;3.33;;;1.83;;
15171;SDS011;7686;52.184;9.280;2022-12-18T09:06:18;4.70;;;2.08;;
15171;SDS011;7686;52.184;9.280;2022-12-18T09:08:45;3.80;;;1.55;;
15171;SDS011;7686;52.184;9.280;2022-12-18T09:11:19;3.03;;;1.80;;
15171;SDS011;7686;52.184;9.280;2022-12-18T09:13:48;5.70;;;1.70;;
15171;SDS011;7686;52.184;9.280;2022-12-18T09:16:15;3.83;;;1.90;;
15171;SDS011;7686;52.184;9.280;2022-12-18T09:18:42;3.13;;;1.75;;
15171;SDS011;7686;52.184;9.280;2022-12-18T09:21:13;5.07;;;1.70;;
15171;SDS011;7686;52.184;9.280;2022-12-18T09:23:48;3.92;;;1.67;;
15171;SDS011;7686;52.184;9.280;2022-12-18T09:26:16;2.88;;;1.52;;
15171;SDS011;7686;52.184;9.280;2022-12-18T09:28:43;2.90;;;1.60;;
15171;SDS011;7686;52.184;9.280;2022-12-18T09:31:10;3.35;;;1.60;;
15171;SDS011;7686;52.184;9.280;2022-12-18T09:33:38;4.05;;;1.63;;
15171;SDS011;7686;52.184;9.280;2022-12-18T09:36:07;3.50;;;1.70;;
15171;SDS011;7686;52.184;9.280;2022-12-18T09:38:35;3.88;;;1.75;;
15171;SDS011;7686;52.184;9.280;2022-12-18T09:41:04;2.42;;;1.35;;
15171;SDS011;7686;52.184;9.280;2022-12-18T09:43:43;3.92;;;1.75;;
15171;SDS011;7686;52.184;9.280;2022-12-18T09:46:17;3.70;;;1.70;;
15171;SDS011;7686;52.184;9.280;2022-12-18T09:48:51;3.97;;;1.65;;
15171;SDS011;7686;52.184;9.280;2022-12-18T09:51:22;2.83;;;1.38;;
15171;SDS011;7686;52.184;9.280;2022-12-18T09:54:06;2.15;;;1.67;;
15171;SDS011;7686;52.184;9.280;2022-12-18T09:56:40;2.88;;;1.58;;
15171;SDS011;7686;52.184;9.280;2022-12-18T09:59:25;2.58;;;1.58;;
15171;SDS011;7686;52.184;9.280;2022-12-18T10:01:57;3.20;;;1.60;;
15171;SDS011;7686;52.184;9.280;2022-12-18T10:04:25;2.75;;;1.48;;
15171;SDS011;7686;52.184;9.280;2022-12-18T10:07:00;3.03;;;1.65;;
15171;SDS011;7686;52.184;9.280;2022-12-18T10:09:39;2.40;;;1.60;;
15171;SDS011;7686;52.184;9.280;2022-12-18T10:12:23;1.70;;;1.20;;
15171;SDS011;7686;52.184;9.280;2022-12-18T10:20:44;3.33;;;1.40;;
15171;SDS011;7686;52.184;9.280;2022-12-18T10:23:33;2.60;;;1.48;;
15171;SDS011;7686;52.184;9.280;2022-12-18T10:26:13;2.25;;;1.30;;
15171;SDS011;7686;52.184;9.280;2022-12-18T10:28:41;2.67;;;1.40;;
15171;SDS011;7686;52.184;9.280;2022-12-18T10:31:23;2.35;;;1.33;;
15171;SDS011;7686;52.184;9.280;2022-12-18T10:33:50;2.58;;;1.25;;
15171;SDS011;7686;52.184;9.280;2022-12-18T10:36:20;2.15;;;1.38;;
15171;SDS011;7686;52.184;9.280;2022-12-18T10:38:49;3.35;;;1.60;;
15171;SDS011;7686;52.184;9.280;2022-12-18T10:43:47;2.20;;;1.20;;
15171;SDS011;7686;52.184;9.280;2022-12-18T10:46:15;2.10;;;1.30;;
15171;SDS011;7686;52.184;9.280;2022-12-18T10:48:50;2.03;;;1.10;;
15171;SDS011;7686;52.184;9.280;2022-12-18T10:51:35;2.45;;;1.35;;
15171;SDS011;7686;52.184;9.280;2022-12-18T10:54:04;2.05;;;1.25;;
15171;SDS011;7686;52.184;9.280;2022-12-18T10:56:38;1.80;;;1.30;;
15171;SDS011;7686;52.184;9.280;2022-12-18T10:59:07;2.95;;;1.10;;
15171;SDS011;7686;52.184;9.280;2022-12-18T11:01:46;1.50;;;1.02;;
15171;SDS011;7686;52.184;9.280;2022-12-18T11:04:19;1.88;;;1.10;;
15171;SDS011;7686;52.184;9.280;2022-12-18T11:06:57;2.63;;;1.08;;
15171;SDS011;7686;52.184;9.280;2022-12-18T11:09:30;2.08;;;1.10;;
15171;SDS011;7686;52.184;9.280;2022-12-18T11:11:59;2.83;;;1.30;;
15171;SDS011;7686;52.184;9.280;2022-12-18T11:14:33;2.08;;;1.02;;
15171;SDS011;7686;52.184;9.280;2022-12-18T11:17:19;3.47;;;1.20;;
15171;SDS011;7686;52.184;9.280;2022-12-18T11:20:39;1.58;;;1.08;;
15171;SDS011;7686;52.184;9.280;2022-12-18T11:22:56;2.20;;;1.08;;
15171;SDS011;7686;52.184;9.280;2022-12-18T11:25:37;1.70;;;1.20;;
15171;SDS011;7686;52.184;9.280;2022-12-18T11:33:42;1.77;;;1.05;;
15171;SDS011;7686;52.184;9.280;2022-12-18T11:36:49;1.45;;;1.00;;
15171;SDS011;7686;52.184;9.280;2022-12-18T11:39:35;2.67;;;1.20;;
15171;SDS011;7686;52.184;9.280;2022-12-18T11:42:09;4.68;;;1.13;;
15171;SDS011;7686;52.184;9.280;2022-12-18T11:44:42;2.08;;;1.20;;
15171;SDS011;7686;52.184;9.280;2022-12-18T11:47:38;2.67;;;1.20;;
15171;SDS011;7686;52.184;9.280;2022-12-18T11:50:16;1.90;;;1.10;;
15171;SDS011;7686;52.184;9.280;2022-12-18T11:52:52;3.03;;;1.00;;
15171;SDS011;7686;52.184;9.280;2022-12-18T11:55:28;1.90;;;1.10;;
15171;SDS011;7686;52.184;9.280;2022-12-18T11:58:19;3.28;;;1.20;;
15171;SDS011;7686;52.184;9.280;2022-12-18T12:03:45;2.70;;;1.20;;
15171;SDS011;7686;52.184;9.280;2022-12-18T12:17:01;2.55;;;1.13;;
15171;SDS011;7686;52.184;9.280;2022-12-18T12:25:30;5.55;;;1.10;;
15171;SDS011;7686;52.184;9.280;2022-12-18T12:33:39;2.70;;;1.45;;
15171;SDS011;7686;52.184;9.280;2022-12-18T12:36:45;1.83;;;1.05;;
15171;SDS011;7686;52.184;9.280;2022-12-18T12:39:23;3.38;;;1.20;;
15171;SDS011;7686;52.184;9.280;2022-12-18T12:41:56;2.08;;;1.13;;
15171;SDS011;7686;52.184;9.280;2022-12-18T12:44:49;2.20;;;1.20;;
15171;SDS011;7686;52.184;9.280;2022-12-18T12:47:40;1.85;;;1.08;;
15171;SDS011;7686;52.184;9.280;2022-12-18T12:50:15;2.03;;;1.20;;
15171;SDS011;7686;52.184;9.280;2022-12-18T12:52:49;2.80;;;1.10;;
15171;SDS011;7686;52.184;9.280;2022-12-18T12:55:23;3.03;;;1.30;;
15171;SDS011;7686;52.184;9.280;2022-12-18T12:57:55;1.40;;;1.00;;
15171;SDS011;7686;52.184;9.280;2022-12-18T13:00:54;2.30;;;1.20;;
15171;SDS011;7686;52.184;9.280;2022-12-18T13:09:10;2.58;;;1.10;;
15171;SDS011;7686;52.184;9.280;2022-12-18T13:11:38;2.13;;;1.02;;
15171;SDS011;7686;52.184;9.280;2022-12-18T13:14:34;2.67;;;1.10;;
15171;SDS011;7686;52.184;9.280;2022-12-18T13:17:16;2.00;;;1.10;;
15171;SDS011;7686;52.184;9.280;2022-12-18T13:20:05;2.78;;;1.27;;
15171;SDS011;7686;52.184;9.280;2022-12-18T13:22:53;3.10;;;1.10;;
15171;SDS011;7686;52.184;9.280;2022-12-18T13:28:03;1.85;;;1.00;;
15171;SDS011;7686;52.184;9.280;2022-12-18T13:35:42;2.35;;;1.02;;
15171;SDS011;7686;52.184;9.280;2022-12-18T13:38:33;2.33;;;1.27;;
15171;SDS011;7686;52.184;9.280;2022-12-18T13:41:01;3.50;;;1.40;;
15171;SDS011;7686;52.184;9.280;2022-12-18T13:43:32;3.28;;;1.20;;
15171;SDS011;7686;52.184;9.280;2022-12-18T13:49:06;3.92;;;1.30;;
15171;SDS011;7686;52.184;9.280;2022-12-18T13:51:39;2.45;;;1.30;;
15171;SDS011;7686;52.184;9.280;2022-12-18T13:57:01;2.65;;;1.10;;
15171;SDS011;7686;52.184;9.280;2022-12-18T13:59:36;2.25;;;1.30;;
15171;SDS011;7686;52.184;9.280;2022-12-18T14:02:18;3.55;;;1.33;;
15171;SDS011;7686;52.184;9.280;2022-12-18T14:04:49;2.13;;;1.20;;
15171;SDS011;7686;52.184;9.280;2022-12-18T14:07:17;2.15;;;1.10;;
15171;SDS011;7686;52.184;9.280;2022-12-18T14:09:50;2.00;;;0.98;;
15171;SDS011;7686;52.184;9.280;2022-12-18T14:12:32;4.22;;;1.20;;
15171;SDS011;7686;52.184;9.280;2022-12-18T14:15:23;3.65;;;1.30;;
15171;SDS011;7686;52.184;9.280;2022-12-18T14:18:16;4.35;;;1.15;;
15171;SDS011;7686;52.184;9.280;2022-12-18T14:21:28;1.60;;;1.10;;
15171;SDS011;7686;52.184;9.280;2022-12-18T14:24:17;2.63;;;1.10;;
15171;SDS011;7686;52.184;9.280;2022-12-18T14:26:49;2.47;;;1.15;;
15171;SDS011;7686;52.184;9.280;2022-12-18T14:29:26;4.03;;;1.38;;
15171;SDS011;7686;52.184;9.280;2022-12-18T14:32:11;2.42;;;1.20;;
15171;SDS011;7686;52.184;9.280;2022-12-18T14:37:16;1.95;;;1.08;;
15171;SDS011;7686;52.184;9.280;2022-12-18T14:39:56;2.75;;;1.30;;
15171;SDS011;7686;52.184;9.280;2022-12-18T14:42:36;1.83;;;1.10;;
15171;SDS011;7686;52.184;9.280;2022-12-18T14:48:19;2.92;;;1.23;;
15171;SDS011;7686;52.184;9.280;2022-12-18T14:53:47;2.42;;;1.15;;
15171;SDS011;7686;52.184;9.280;2022-12-18T14:56:27;1.90;;;1.13;;
15171;SDS011;7686;52.184;9.280;2022-12-18T14:59:12;2.65;;;1.30;;
15171;SDS011;7686;52.184;9.280;2022-12-18T15:04:58;1.90;;;1.10;;
15171;SDS011;7686;52.184;9.280;2022-12-18T15:07:38;2.63;;;1.10;;
15171;SDS011;7686;52.184;9.280;2022-12-18T15:12:46;1.10;;;0.90;;
15171;SDS011;7686;52.184;9.280;2022-12-18T15:20:43;1.60;;;1.02;;
15171;SDS011;7686;52.184;9.280;2022-12-18T15:23:20;1.25;;;0.90;;
15171;SDS011;7686;52.184;9.280;2022-12-18T15:25:55;2.20;;;1.00;;
15171;SDS011;7686;52.184;9.280;2022-12-18T15:28:45;1.75;;;0.90;;
15171;SDS011;7686;52.184;9.280;2022-12-18T15:36:20;1.42;;;0.93;;
15171;SDS011;7686;52.184;9.280;2022-12-18T15:38:52;3.75;;;1.30;;
15171;SDS011;7686;52.184;9.280;2022-12-18T15:41:26;2.58;;;1.00;;
15171;SDS011;7686;52.184;9.280;2022-12-18T15:43:53;2.35;;;0.95;;
15171;SDS011;7686;52.184;9.280;2022-12-18T15:46:21;2.45;;;1.17;;
15171;SDS011;7686;52.184;9.280;2022-12-18T15:48:53;1.30;;;0.93;;
15171;SDS011;7686;52.184;9.280;2022-12-18T15:51:28;1.20;;;0.90;;
15171;SDS011;7686;52.184;9.280;2022-12-18T15:53:58;2.15;;;1.10;;
15171;SDS011;7686;52.184;9.280;2022-12-18T15:56:26;1.23;;;0.90;;
15171;SDS011;7686;52.184;9.280;2022-12-18T15:59:14;2.53;;;1.10;;
15171;SDS011;7686;52.184;9.280;2022-12-18T16:01:43;1.17;;;0.95;;
15171;SDS011;7686;52.184;9.280;2022-12-18T16:04:12;1.75;;;1.00;;
15171;SDS011;7686;52.184;9.280;2022-12-18T16:06:41;1.85;;;1.00;;
15171;SDS011;7686;52.184;9.280;2022-12-18T16:09:28;2.33;;;1.25;;
15171;SDS011;7686;52.184;9.280;2022-12-18T16:11:55;1.50;;;1.00;;
15171;SDS011;7686;52.184;9.280;2022-12-18T16:14:23;1.30;;;0.90;;
15171;SDS011;7686;52.184;9.280;2022-12-18T16:16:58;1.38;;;0.90;;
15171;SDS011;7686;52.184;9.280;2022-12-18T16:19:27;1.45;;;1.10;;
15171;SDS011;7686;52.184;9.280;2022-12-18T16:21:55;1.40;;;1.00;;
15171;SDS011;7686;52.184;9.280;2022-12-18T16:24:24;1.55;;;0.85;;
15171;SDS011;7686;52.184;9.280;2022-12-18T16:26:53;1.25;;;0.90;;
15171;SDS011;7686;52.184;9.280;2022-12-18T16:29:20;1.33;;;0.95;;
15171;SDS011;7686;52.184;9.280;2022-12-18T16:31:51;1.35;;;0.93;;
15171;SDS011;7686;52.184;9.280;2022-12-18T16:34:18;1.33;;;0.90;;
15171;SDS011;7686;52.184;9.280;2022-12-18T16:36:50;1.02;;;0.77;;
15171;SDS011;7686;52.184;9.280;2022-12-18T16:39:17;2.42;;;0.80;;
15171;SDS011;7686;52.184;9.280;2022-12-18T16:41:44;1.95;;;0.90;;
15171;SDS011;7686;52.184;9.280;2022-12-18T16:44:10;1.85;;;1.05;;
15171;SDS011;7686;52.184;9.280;2022-12-18T16:46:38;1.20;;;0.80;;
15171;SDS011;7686;52.184;9.280;2022-12-18T16:49:05;0.70;;;0.70;;
15171;SDS011;7686;52.184;9.280;2022-12-18T16:51:32;1.48;;;1.00;;
15171;SDS011;7686;52.184;9.280;2022-12-18T16:53:58;2.55;;;1.00;;
15171;SDS011;7686;52.184;9.280;2022-12-18T16:56:28;1.35;;;0.82;;
15171;SDS011;7686;52.184;9.280;2022-12-18T16:58:56;1.00;;;0.80;;
15171;SDS011;7686;52.184;9.280;2022-12-18T17:01:24;1.08;;;0.80;;
15171;SDS011;7686;52.184;9.280;2022-12-18T17:03:56;1.73;;;1.05;;
15171;SDS011;7686;52.184;9.280;2022-12-18T17:06:29;1.05;;;0.77;;
15171;SDS011;7686;52.184;9.280;2022-12-18T17:09:01;1.55;;;0.95;;
15171;SDS011;7686;52.184;9.280;2022-12-18T17:11:34;0.95;;;0.80;;
15171;SDS011;7686;52.184;9.280;2022-12-18T17:14:12;1.90;;;0.80;;
15171;SDS011;7686;52.184;9.280;2022-12-18T17:16:40;1.05;;;0.77;;
15171;SDS011;7686;52.184;9.280;2022-12-18T17:19:07;1.85;;;0.95;;
15171;SDS011;7686;52.184;9.280;2022-12-18T17:21:42;1.52;;;0.90;;
15171;SDS011;7686;52.184;9.280;2022-12-18T17:24:10;1.92;;;1.10;;
15171;SDS011;7686;52.184;9.280;2022-12-18T17:26:37;1.23;;;0.80;;